sensor_id;sensor_type;location;lat;lon;timestamp;P1;durP1;ratioP1;P2;durP2;ratioP2
30010;SDS011;16851;53.564;8.112;2024-02-21T00:03:41;24.07;;;10.17;;
30010;SDS011;16851;53.564;8.112;2024-02-21T00:08:44;22.47;;;10.20;;
30010;SDS011;16851;53.564;8.112;2024-02-21T00:13:47;19.67;;;8.37;;
30010;SDS011;16851;53.564;8.112;2024-02-21T00:18:51;21.00;;;9.13;;
30010;SDS011;16851;53.564;8.112;2024-02-21T00:23:53;20.17;;;9.63;;
30010;SDS011;16851;53.564;8.112;2024-02-21T00:28:55;21.83;;;8.70;;
30010;SDS011;16851;53.564;8.112;2024-02-21T00:33:57;21.03;;;8.80;;
30010;SDS011;16851;53.564;8.112;2024-02-21T00:39:01;20.77;;;7.93;;
30010;SDS011;16851;53.564;8.112;2024-02-21T00:44:04;16.90;;;7.67;;
30010;SDS011;16851;53.564;8.112;2024-02-21T00:49:07;23.13;;;7.33;;
30010;SDS011;16851;53.564;8.112;2024-02-21T00:54:12;23.97;;;7.53;;
30010;SDS011;16851;53.564;8.112;2024-02-21T00:59:16;19.00;;;7.83;;
30010;SDS011;16851;53.564;8.112;2024-02-21T01:04:21;20.50;;;8.20;;
30010;SDS011;16851;53.564;8.112;2024-02-21T01:09:25;24.77;;;9.20;;
30010;SDS011;16851;53.564;8.112;2024-02-21T01:14:27;24.13;;;9.27;;
30010;SDS011;16851;53.564;8.112;2024-02-21T01:19:29;23.00;;;9.83;;
30010;SDS011;16851;53.564;8.112;2024-02-21T01:24:31;28.37;;;9.13;;
30010;SDS011;16851;53.564;8.112;2024-02-21T01:29:35;14.77;;;7.33;;
30010;SDS011;16851;53.564;8.112;2024-02-21T01:34:40;26.00;;;8.40;;
30010;SDS011;16851;53.564;8.112;2024-02-21T01:39:44;25.60;;;9.80;;
30010;SDS011;16851;53.564;8.112;2024-02-21T01:44:46;21.60;;;7.53;;
30010;SDS011;16851;53.564;8.112;2024-02-21T01:49:50;24.27;;;7.93;;
30010;SDS011;16851;53.564;8.112;2024-02-21T01:54:54;26.27;;;9.03;;
30010;SDS011;16851;53.564;8.112;2024-02-21T02:00:01;20.03;;;6.97;;
30010;SDS011;16851;53.564;8.112;2024-02-21T02:05:11;27.73;;;7.87;;
30010;SDS011;16851;53.564;8.112;2024-02-21T02:10:13;27.43;;;9.40;;
30010;SDS011;16851;53.564;8.112;2024-02-21T02:15:17;27.10;;;9.57;;
30010;SDS011;16851;53.564;8.112;2024-02-21T02:20:19;24.10;;;9.47;;
30010;SDS011;16851;53.564;8.112;2024-02-21T02:25:21;25.83;;;10.27;;
30010;SDS011;16851;53.564;8.112;2024-02-21T02:30:23;23.83;;;11.70;;
30010;SDS011;16851;53.564;8.112;2024-02-21T02:35:25;41.63;;;13.47;;
30010;SDS011;16851;53.564;8.112;2024-02-21T02:40:27;29.70;;;11.50;;
30010;SDS011;16851;53.564;8.112;2024-02-21T02:45:31;42.40;;;12.67;;
30010;SDS011;16851;53.564;8.112;2024-02-21T02:50:36;34.23;;;12.97;;
30010;SDS011;16851;53.564;8.112;2024-02-21T02:55:38;38.57;;;12.23;;
30010;SDS011;16851;53.564;8.112;2024-02-21T03:00:40;38.47;;;13.23;;
30010;SDS011;16851;53.564;8.112;2024-02-21T03:05:44;33.87;;;13.73;;
30010;SDS011;16851;53.564;8.112;2024-02-21T03:10:49;33.10;;;14.60;;
30010;SDS011;16851;53.564;8.112;2024-02-21T03:15:53;29.50;;;10.20;;
30010;SDS011;16851;53.564;8.112;2024-02-21T03:20:55;33.43;;;11.70;;
30010;SDS011;16851;53.564;8.112;2024-02-21T03:25:59;31.80;;;12.77;;
30010;SDS011;16851;53.564;8.112;2024-02-21T03:31:04;32.10;;;13.43;;
30010;SDS011;16851;53.564;8.112;2024-02-21T03:36:05;25.70;;;11.03;;
30010;SDS011;16851;53.564;8.112;2024-02-21T03:41:07;22.70;;;13.53;;
30010;SDS011;16851;53.564;8.112;2024-02-21T03:46:12;29.00;;;13.50;;
30010;SDS011;16851;53.564;8.112;2024-02-21T03:51:14;24.57;;;12.90;;
30010;SDS011;16851;53.564;8.112;2024-02-21T03:56:17;28.90;;;14.17;;
30010;SDS011;16851;53.564;8.112;2024-02-21T04:01:19;25.57;;;13.57;;
30010;SDS011;16851;53.564;8.112;2024-02-21T04:06:21;28.00;;;13.83;;
30010;SDS011;16851;53.564;8.112;2024-02-21T04:11:23;27.57;;;13.47;;
30010;SDS011;16851;53.564;8.112;2024-02-21T04:16:25;15.97;;;9.57;;
30010;SDS011;16851;53.564;8.112;2024-02-21T04:21:26;20.60;;;11.33;;
30010;SDS011;16851;53.564;8.112;2024-02-21T04:26:31;15.67;;;9.13;;
30010;SDS011;16851;53.564;8.112;2024-02-21T04:31:35;18.47;;;10.67;;
30010;SDS011;16851;53.564;8.112;2024-02-21T04:36:39;19.77;;;9.70;;
30010;SDS011;16851;53.564;8.112;2024-02-21T04:41:43;24.93;;;12.40;;
30010;SDS011;16851;53.564;8.112;2024-02-21T04:46:47;24.73;;;11.73;;
30010;SDS011;16851;53.564;8.112;2024-02-21T04:51:49;32.07;;;14.60;;
30010;SDS011;16851;53.564;8.112;2024-02-21T04:56:51;29.40;;;14.30;;
30010;SDS011;16851;53.564;8.112;2024-02-21T05:01:54;27.87;;;13.57;;
30010;SDS011;16851;53.564;8.112;2024-02-21T05:06:56;38.50;;;16.57;;
30010;SDS011;16851;53.564;8.112;2024-02-21T05:11:58;39.73;;;16.13;;
30010;SDS011;16851;53.564;8.112;2024-02-21T05:17:03;34.50;;;14.97;;
30010;SDS011;16851;53.564;8.112;2024-02-21T05:22:08;51.97;;;18.57;;
30010;SDS011;16851;53.564;8.112;2024-02-21T05:27:10;41.57;;;18.00;;
30010;SDS011;16851;53.564;8.112;2024-02-21T05:32:11;46.50;;;16.97;;
30010;SDS011;16851;53.564;8.112;2024-02-21T05:37:18;40.47;;;17.87;;
30010;SDS011;16851;53.564;8.112;2024-02-21T05:42:22;49.80;;;18.00;;
30010;SDS011;16851;53.564;8.112;2024-02-21T05:47:23;44.47;;;18.77;;
30010;SDS011;16851;53.564;8.112;2024-02-21T05:52:26;55.67;;;19.40;;
30010;SDS011;16851;53.564;8.112;2024-02-21T05:57:33;48.23;;;19.53;;
30010;SDS011;16851;53.564;8.112;2024-02-21T06:02:34;52.80;;;17.83;;
30010;SDS011;16851;53.564;8.112;2024-02-21T06:07:36;56.97;;;18.23;;
30010;SDS011;16851;53.564;8.112;2024-02-21T06:12:38;54.97;;;20.10;;
30010;SDS011;16851;53.564;8.112;2024-02-21T06:17:40;63.23;;;20.57;;
30010;SDS011;16851;53.564;8.112;2024-02-21T06:22:42;51.63;;;18.40;;
30010;SDS011;16851;53.564;8.112;2024-02-21T06:27:47;50.53;;;20.03;;
30010;SDS011;16851;53.564;8.112;2024-02-21T06:32:55;70.87;;;22.53;;
30010;SDS011;16851;53.564;8.112;2024-02-21T06:38:01;57.37;;;18.60;;
30010;SDS011;16851;53.564;8.112;2024-02-21T06:43:03;64.27;;;19.87;;
30010;SDS011;16851;53.564;8.112;2024-02-21T06:48:09;56.63;;;20.63;;
30010;SDS011;16851;53.564;8.112;2024-02-21T06:53:13;59.60;;;18.73;;
30010;SDS011;16851;53.564;8.112;2024-02-21T06:58:19;64.40;;;22.63;;
30010;SDS011;16851;53.564;8.112;2024-02-21T07:03:22;55.08;;;20.83;;
30010;SDS011;16851;53.564;8.112;2024-02-21T07:08:27;58.03;;;20.43;;
30010;SDS011;16851;53.564;8.112;2024-02-21T07:13:32;64.07;;;22.27;;
30010;SDS011;16851;53.564;8.112;2024-02-21T07:18:34;55.67;;;17.83;;
30010;SDS011;16851;53.564;8.112;2024-02-21T07:23:42;51.50;;;17.03;;
30010;SDS011;16851;53.564;8.112;2024-02-21T07:28:45;51.47;;;17.80;;
30010;SDS011;16851;53.564;8.112;2024-02-21T07:33:49;65.43;;;20.63;;
30010;SDS011;16851;53.564;8.112;2024-02-21T07:38:54;58.63;;;21.03;;
30010;SDS011;16851;53.564;8.112;2024-02-21T07:43:59;74.10;;;23.80;;
30010;SDS011;16851;53.564;8.112;2024-02-21T07:49:01;57.47;;;24.33;;
30010;SDS011;16851;53.564;8.112;2024-02-21T07:54:04;62.53;;;24.10;;
30010;SDS011;16851;53.564;8.112;2024-02-21T07:59:06;60.00;;;24.10;;
30010;SDS011;16851;53.564;8.112;2024-02-21T08:04:10;62.67;;;25.73;;
30010;SDS011;16851;53.564;8.112;2024-02-21T08:09:16;77.13;;;27.77;;
30010;SDS011;16851;53.564;8.112;2024-02-21T08:14:21;67.50;;;25.67;;
30010;SDS011;16851;53.564;8.112;2024-02-21T08:19:29;52.47;;;21.23;;
30010;SDS011;16851;53.564;8.112;2024-02-21T08:24:32;63.90;;;25.23;;
30010;SDS011;16851;53.564;8.112;2024-02-21T08:29:38;58.00;;;22.80;;
30010;SDS011;16851;53.564;8.112;2024-02-21T08:34:40;61.30;;;23.67;;
30010;SDS011;16851;53.564;8.112;2024-02-21T08:39:44;54.20;;;21.93;;
30010;SDS011;16851;53.564;8.112;2024-02-21T08:44:51;42.40;;;19.73;;
30010;SDS011;16851;53.564;8.112;2024-02-21T08:49:57;39.93;;;17.30;;
30010;SDS011;16851;53.564;8.112;2024-02-21T08:55:06;35.00;;;17.13;;
30010;SDS011;16851;53.564;8.112;2024-02-21T09:00:09;36.73;;;19.33;;
30010;SDS011;16851;53.564;8.112;2024-02-21T09:05:11;33.00;;;14.97;;
30010;SDS011;16851;53.564;8.112;2024-02-21T09:10:17;41.63;;;19.07;;
30010;SDS011;16851;53.564;8.112;2024-02-21T09:15:20;38.27;;;18.07;;
30010;SDS011;16851;53.564;8.112;2024-02-21T09:20:23;39.43;;;17.70;;
30010;SDS011;16851;53.564;8.112;2024-02-21T09:25:32;34.73;;;16.60;;
30010;SDS011;16851;53.564;8.112;2024-02-21T09:30:34;38.13;;;18.77;;
30010;SDS011;16851;53.564;8.112;2024-02-21T09:35:42;33.90;;;17.00;;
30010;SDS011;16851;53.564;8.112;2024-02-21T09:40:47;41.53;;;18.80;;
30010;SDS011;16851;53.564;8.112;2024-02-21T09:45:55;36.47;;;17.47;;
30010;SDS011;16851;53.564;8.112;2024-02-21T09:51:04;48.40;;;23.83;;
30010;SDS011;16851;53.564;8.112;2024-02-21T09:56:08;53.23;;;23.30;;
30010;SDS011;16851;53.564;8.112;2024-02-21T10:01:16;41.40;;;18.23;;
30010;SDS011;16851;53.564;8.112;2024-02-21T10:06:34;49.57;;;21.33;;
30010;SDS011;16851;53.564;8.112;2024-02-21T10:11:43;38.20;;;19.93;;
30010;SDS011;16851;53.564;8.112;2024-02-21T10:16:48;44.77;;;20.20;;
30010;SDS011;16851;53.564;8.112;2024-02-21T10:22:03;39.17;;;19.70;;
30010;SDS011;16851;53.564;8.112;2024-02-21T10:27:08;38.53;;;19.83;;
30010;SDS011;16851;53.564;8.112;2024-02-21T10:32:14;40.03;;;20.63;;
30010;SDS011;16851;53.564;8.112;2024-02-21T10:37:18;35.63;;;18.63;;
30010;SDS011;16851;53.564;8.112;2024-02-21T10:42:23;40.13;;;18.63;;
30010;SDS011;16851;53.564;8.112;2024-02-21T10:47:36;36.97;;;23.60;;
30010;SDS011;16851;53.564;8.112;2024-02-21T10:52:48;41.10;;;21.10;;
30010;SDS011;16851;53.564;8.112;2024-02-21T10:57:54;46.00;;;25.80;;
30010;SDS011;16851;53.564;8.112;2024-02-21T11:02:57;36.07;;;22.50;;
30010;SDS011;16851;53.564;8.112;2024-02-21T11:08:05;45.63;;;24.93;;
30010;SDS011;16851;53.564;8.112;2024-02-21T11:13:08;31.03;;;18.23;;
30010;SDS011;16851;53.564;8.112;2024-02-21T11:18:22;44.37;;;25.33;;
30010;SDS011;16851;53.564;8.112;2024-02-21T11:23:26;41.80;;;23.67;;
30010;SDS011;16851;53.564;8.112;2024-02-21T11:28:29;35.50;;;22.30;;
30010;SDS011;16851;53.564;8.112;2024-02-21T11:33:34;45.23;;;23.17;;
30010;SDS011;16851;53.564;8.112;2024-02-21T11:38:41;34.70;;;18.70;;
30010;SDS011;16851;53.564;8.112;2024-02-21T11:43:43;32.80;;;22.40;;
30010;SDS011;16851;53.564;8.112;2024-02-21T11:48:50;33.20;;;18.13;;
30010;SDS011;16851;53.564;8.112;2024-02-21T11:53:53;29.70;;;20.53;;
30010;SDS011;16851;53.564;8.112;2024-02-21T11:59:04;26.57;;;13.20;;
30010;SDS011;16851;53.564;8.112;2024-02-21T12:04:08;26.90;;;16.53;;
30010;SDS011;16851;53.564;8.112;2024-02-21T12:09:14;25.90;;;15.33;;
30010;SDS011;16851;53.564;8.112;2024-02-21T12:14:20;30.37;;;16.07;;
30010;SDS011;16851;53.564;8.112;2024-02-21T12:19:25;30.27;;;17.03;;
30010;SDS011;16851;53.564;8.112;2024-02-21T12:24:33;26.43;;;15.37;;
30010;SDS011;16851;53.564;8.112;2024-02-21T12:29:35;24.63;;;14.90;;
30010;SDS011;16851;53.564;8.112;2024-02-21T12:34:37;24.07;;;14.23;;
30010;SDS011;16851;53.564;8.112;2024-02-21T12:39:54;21.20;;;12.57;;
30010;SDS011;16851;53.564;8.112;2024-02-21T12:44:57;21.77;;;11.37;;
30010;SDS011;16851;53.564;8.112;2024-02-21T12:50:01;25.50;;;12.52;;
30010;SDS011;16851;53.564;8.112;2024-02-21T12:55:06;24.45;;;13.52;;
30010;SDS011;16851;53.564;8.112;2024-02-21T13:00:08;20.87;;;10.80;;
30010;SDS011;16851;53.564;8.112;2024-02-21T13:05:15;17.63;;;9.53;;
30010;SDS011;16851;53.564;8.112;2024-02-21T13:10:18;24.67;;;12.07;;
30010;SDS011;16851;53.564;8.112;2024-02-21T13:15:25;15.60;;;9.90;;
30010;SDS011;16851;53.564;8.112;2024-02-21T13:20:32;23.83;;;10.18;;
30010;SDS011;16851;53.564;8.112;2024-02-21T13:25:35;15.47;;;8.47;;
30010;SDS011;16851;53.564;8.112;2024-02-21T13:30:37;24.03;;;8.83;;
30010;SDS011;16851;53.564;8.112;2024-02-21T13:35:40;16.70;;;9.03;;
30010;SDS011;16851;53.564;8.112;2024-02-21T13:40:42;17.50;;;8.80;;
30010;SDS011;16851;53.564;8.112;2024-02-21T13:45:56;15.07;;;8.43;;
30010;SDS011;16851;53.564;8.112;2024-02-21T13:51:06;19.30;;;8.38;;
30010;SDS011;16851;53.564;8.112;2024-02-21T13:56:08;15.83;;;8.47;;
30010;SDS011;16851;53.564;8.112;2024-02-21T14:01:12;12.77;;;7.75;;
30010;SDS011;16851;53.564;8.112;2024-02-21T14:06:15;16.48;;;7.80;;
30010;SDS011;16851;53.564;8.112;2024-02-21T14:11:19;13.20;;;6.87;;
30010;SDS011;16851;53.564;8.112;2024-02-21T14:16:23;13.93;;;7.67;;
30010;SDS011;16851;53.564;8.112;2024-02-21T14:21:26;17.37;;;7.07;;
30010;SDS011;16851;53.564;8.112;2024-02-21T14:26:33;12.93;;;6.73;;
30010;SDS011;16851;53.564;8.112;2024-02-21T14:31:38;15.43;;;7.90;;
30010;SDS011;16851;53.564;8.112;2024-02-21T14:36:41;15.70;;;7.87;;
30010;SDS011;16851;53.564;8.112;2024-02-21T14:41:43;14.23;;;7.38;;
30010;SDS011;16851;53.564;8.112;2024-02-21T14:46:47;11.17;;;6.63;;
30010;SDS011;16851;53.564;8.112;2024-02-21T14:51:49;16.50;;;7.77;;
30010;SDS011;16851;53.564;8.112;2024-02-21T14:56:56;11.27;;;6.50;;
30010;SDS011;16851;53.564;8.112;2024-02-21T15:01:58;9.20;;;6.17;;
30010;SDS011;16851;53.564;8.112;2024-02-21T15:07:05;13.70;;;7.33;;
30010;SDS011;16851;53.564;8.112;2024-02-21T15:12:10;11.70;;;6.07;;
30010;SDS011;16851;53.564;8.112;2024-02-21T15:17:12;18.50;;;6.07;;
30010;SDS011;16851;53.564;8.112;2024-02-21T15:22:15;9.37;;;4.40;;
30010;SDS011;16851;53.564;8.112;2024-02-21T15:27:19;8.60;;;4.70;;
30010;SDS011;16851;53.564;8.112;2024-02-21T15:32:25;8.47;;;4.50;;
30010;SDS011;16851;53.564;8.112;2024-02-21T15:37:29;7.17;;;3.80;;
30010;SDS011;16851;53.564;8.112;2024-02-21T15:42:32;8.63;;;4.67;;
30010;SDS011;16851;53.564;8.112;2024-02-21T15:47:35;9.87;;;4.40;;
30010;SDS011;16851;53.564;8.112;2024-02-21T15:52:37;7.70;;;5.20;;
30010;SDS011;16851;53.564;8.112;2024-02-21T15:57:42;10.83;;;3.90;;
30010;SDS011;16851;53.564;8.112;2024-02-21T16:02:47;10.93;;;4.90;;
30010;SDS011;16851;53.564;8.112;2024-02-21T16:07:55;10.37;;;4.80;;
30010;SDS011;16851;53.564;8.112;2024-02-21T16:12:58;11.10;;;5.28;;
30010;SDS011;16851;53.564;8.112;2024-02-21T16:18:02;9.52;;;5.20;;
30010;SDS011;16851;53.564;8.112;2024-02-21T16:23:05;10.73;;;4.90;;
30010;SDS011;16851;53.564;8.112;2024-02-21T16:28:11;10.17;;;5.67;;
30010;SDS011;16851;53.564;8.112;2024-02-21T16:33:13;9.23;;;5.90;;
30010;SDS011;16851;53.564;8.112;2024-02-21T16:38:16;9.97;;;7.70;;
30010;SDS011;16851;53.564;8.112;2024-02-21T16:43:20;18.00;;;8.40;;
30010;SDS011;16851;53.564;8.112;2024-02-21T16:48:26;17.93;;;10.23;;
30010;SDS011;16851;53.564;8.112;2024-02-21T16:53:31;16.13;;;9.97;;
30010;SDS011;16851;53.564;8.112;2024-02-21T16:58:33;18.80;;;12.07;;
30010;SDS011;16851;53.564;8.112;2024-02-21T17:03:40;16.27;;;11.13;;
30010;SDS011;16851;53.564;8.112;2024-02-21T17:08:46;15.87;;;11.77;;
30010;SDS011;16851;53.564;8.112;2024-02-21T17:13:48;17.17;;;12.80;;
30010;SDS011;16851;53.564;8.112;2024-02-21T17:18:51;19.53;;;12.13;;
30010;SDS011;16851;53.564;8.112;2024-02-21T17:23:56;15.90;;;11.80;;
30010;SDS011;16851;53.564;8.112;2024-02-21T17:29:05;16.60;;;11.20;;
30010;SDS011;16851;53.564;8.112;2024-02-21T17:34:07;21.90;;;12.70;;
30010;SDS011;16851;53.564;8.112;2024-02-21T17:39:09;18.00;;;12.60;;
30010;SDS011;16851;53.564;8.112;2024-02-21T17:44:12;20.07;;;12.27;;
30010;SDS011;16851;53.564;8.112;2024-02-21T17:49:14;21.67;;;12.73;;
30010;SDS011;16851;53.564;8.112;2024-02-21T17:54:21;19.27;;;10.90;;
30010;SDS011;16851;53.564;8.112;2024-02-21T17:59:24;23.90;;;11.27;;
30010;SDS011;16851;53.564;8.112;2024-02-21T18:04:28;19.17;;;11.53;;
30010;SDS011;16851;53.564;8.112;2024-02-21T18:09:30;20.80;;;11.13;;
30010;SDS011;16851;53.564;8.112;2024-02-21T18:14:35;18.63;;;11.80;;
30010;SDS011;16851;53.564;8.112;2024-02-21T18:19:40;23.40;;;12.13;;
30010;SDS011;16851;53.564;8.112;2024-02-21T18:24:42;21.33;;;11.27;;
30010;SDS011;16851;53.564;8.112;2024-02-21T18:29:46;19.40;;;10.87;;
30010;SDS011;16851;53.564;8.112;2024-02-21T18:34:51;23.23;;;11.40;;
30010;SDS011;16851;53.564;8.112;2024-02-21T18:39:55;18.03;;;10.17;;
30010;SDS011;16851;53.564;8.112;2024-02-21T18:44:57;25.63;;;10.00;;
30010;SDS011;16851;53.564;8.112;2024-02-21T18:50:00;22.20;;;10.17;;
30010;SDS011;16851;53.564;8.112;2024-02-21T18:55:05;22.73;;;9.90;;
30010;SDS011;16851;53.564;8.112;2024-02-21T19:00:11;25.20;;;9.43;;
30010;SDS011;16851;53.564;8.112;2024-02-21T19:05:18;15.50;;;8.87;;
30010;SDS011;16851;53.564;8.112;2024-02-21T19:10:26;22.43;;;9.63;;
30010;SDS011;16851;53.564;8.112;2024-02-21T19:15:29;18.42;;;9.27;;
30010;SDS011;16851;53.564;8.112;2024-02-21T19:20:32;16.80;;;7.93;;
30010;SDS011;16851;53.564;8.112;2024-02-21T19:25:34;17.37;;;7.47;;
30010;SDS011;16851;53.564;8.112;2024-02-21T19:30:40;17.60;;;8.40;;
30010;SDS011;16851;53.564;8.112;2024-02-21T19:35:45;16.93;;;8.27;;
30010;SDS011;16851;53.564;8.112;2024-02-21T19:40:50;23.43;;;8.70;;
30010;SDS011;16851;53.564;8.112;2024-02-21T19:45:53;18.93;;;8.33;;
30010;SDS011;16851;53.564;8.112;2024-02-21T19:51:00;14.67;;;8.20;;
30010;SDS011;16851;53.564;8.112;2024-02-21T19:56:02;22.80;;;9.17;;
30010;SDS011;16851;53.564;8.112;2024-02-21T20:01:07;24.47;;;10.10;;
30010;SDS011;16851;53.564;8.112;2024-02-21T20:06:13;23.70;;;8.47;;
30010;SDS011;16851;53.564;8.112;2024-02-21T20:11:20;27.03;;;9.77;;
30010;SDS011;16851;53.564;8.112;2024-02-21T20:16:24;21.37;;;9.37;;
30010;SDS011;16851;53.564;8.112;2024-02-21T20:21:26;21.43;;;9.70;;
30010;SDS011;16851;53.564;8.112;2024-02-21T20:26:30;16.63;;;9.10;;
30010;SDS011;16851;53.564;8.112;2024-02-21T20:31:35;16.23;;;8.40;;
30010;SDS011;16851;53.564;8.112;2024-02-21T20:36:40;22.33;;;9.67;;
30010;SDS011;16851;53.564;8.112;2024-02-21T20:41:43;22.93;;;9.33;;
30010;SDS011;16851;53.564;8.112;2024-02-21T20:46:50;20.10;;;10.60;;
30010;SDS011;16851;53.564;8.112;2024-02-21T20:51:53;23.07;;;10.53;;
30010;SDS011;16851;53.564;8.112;2024-02-21T20:56:55;23.13;;;11.27;;
30010;SDS011;16851;53.564;8.112;2024-02-21T21:02:02;20.70;;;11.07;;
30010;SDS011;16851;53.564;8.112;2024-02-21T21:07:05;19.87;;;11.23;;
30010;SDS011;16851;53.564;8.112;2024-02-21T21:12:08;22.07;;;11.27;;
30010;SDS011;16851;53.564;8.112;2024-02-21T21:17:11;17.70;;;10.80;;
30010;SDS011;16851;53.564;8.112;2024-02-21T21:22:18;23.00;;;10.90;;
30010;SDS011;16851;53.564;8.112;2024-02-21T21:27:20;17.73;;;9.30;;
30010;SDS011;16851;53.564;8.112;2024-02-21T21:32:25;19.33;;;11.27;;
30010;SDS011;16851;53.564;8.112;2024-02-21T21:37:31;19.33;;;11.60;;
30010;SDS011;16851;53.564;8.112;2024-02-21T21:42:36;21.40;;;12.33;;
30010;SDS011;16851;53.564;8.112;2024-02-21T21:47:38;22.27;;;12.33;;
30010;SDS011;16851;53.564;8.112;2024-02-21T21:52:43;20.50;;;11.50;;
30010;SDS011;16851;53.564;8.112;2024-02-21T21:57:50;22.10;;;13.00;;
30010;SDS011;16851;53.564;8.112;2024-02-21T22:02:54;20.23;;;11.97;;
30010;SDS011;16851;53.564;8.112;2024-02-21T22:07:57;21.10;;;12.07;;
30010;SDS011;16851;53.564;8.112;2024-02-21T22:13:00;19.73;;;11.13;;
30010;SDS011;16851;53.564;8.112;2024-02-21T22:18:03;18.40;;;11.83;;
30010;SDS011;16851;53.564;8.112;2024-02-21T22:23:08;24.33;;;12.83;;
30010;SDS011;16851;53.564;8.112;2024-02-21T22:28:11;21.50;;;13.80;;
30010;SDS011;16851;53.564;8.112;2024-02-21T22:33:16;18.43;;;12.23;;
30010;SDS011;16851;53.564;8.112;2024-02-21T22:38:23;21.03;;;12.60;;
30010;SDS011;16851;53.564;8.112;2024-02-21T22:43:25;22.93;;;13.20;;
30010;SDS011;16851;53.564;8.112;2024-02-21T22:48:28;19.37;;;13.37;;
30010;SDS011;16851;53.564;8.112;2024-02-21T22:53:32;20.30;;;13.20;;
30010;SDS011;16851;53.564;8.112;2024-02-21T22:58:35;18.07;;;12.90;;
30010;SDS011;16851;53.564;8.112;2024-02-21T23:03:37;26.20;;;13.63;;
30010;SDS011;16851;53.564;8.112;2024-02-21T23:08:39;21.33;;;13.97;;
30010;SDS011;16851;53.564;8.112;2024-02-21T23:13:44;20.20;;;13.60;;
30010;SDS011;16851;53.564;8.112;2024-02-21T23:18:54;15.90;;;11.57;;
30010;SDS011;16851;53.564;8.112;2024-02-21T23:23:55;23.50;;;15.83;;
30010;SDS011;16851;53.564;8.112;2024-02-21T23:28:57;21.53;;;15.83;;
30010;SDS011;16851;53.564;8.112;2024-02-21T23:34:00;24.27;;;15.80;;
30010;SDS011;16851;53.564;8.112;2024-02-21T23:39:02;20.00;;;15.60;;
30010;SDS011;16851;53.564;8.112;2024-02-21T23:44:10;21.17;;;16.07;;
30010;SDS011;16851;53.564;8.112;2024-02-21T23:49:13;22.90;;;17.17;;
30010;SDS011;16851;53.564;8.112;2024-02-21T23:54:15;22.83;;;17.80;;
30010;SDS011;16851;53.564;8.112;2024-02-21T23:59:19;18.43;;;16.40;;
